createdAt,value
2023-02-15T00:00:45.095Z,7.10
2023-02-15T00:02:46.757Z,7.00
2023-02-15T00:04:48.474Z,7.00
2023-02-15T00:06:50.516Z,7.00
2023-02-15T00:08:52.500Z,7.00
2023-02-15T00:10:54.160Z,6.90
2023-02-15T00:12:55.780Z,6.90
2023-02-15T00:14:57.548Z,6.80
2023-02-15T00:17:00.899Z,6.80
2023-02-15T00:19:03.033Z,6.80
2023-02-15T00:21:06.348Z,6.80
2023-02-15T00:23:08.106Z,6.80
2023-02-15T00:25:09.748Z,6.80
2023-02-15T00:27:11.408Z,6.70
2023-02-15T00:29:15.435Z,6.70
2023-02-15T00:31:17.368Z,6.70
2023-02-15T00:33:19.112Z,6.70
2023-02-15T00:35:20.801Z,6.70
2023-02-15T00:37:22.435Z,6.60
2023-02-15T00:39:24.827Z,6.60
2023-02-15T00:41:26.536Z,6.60
2023-02-15T00:43:29.786Z,6.60
2023-02-15T00:45:31.460Z,6.60
2023-02-15T00:47:33.092Z,6.60
2023-02-15T00:49:34.751Z,6.60
2023-02-15T00:51:36.536Z,6.60
2023-02-15T00:53:38.215Z,6.60
2023-02-15T00:55:41.159Z,6.60
2023-02-15T00:57:42.793Z,6.60
2023-02-15T00:59:44.448Z,6.60
2023-02-15T01:01:46.144Z,6.60
2023-02-15T01:03:47.793Z,6.60
2023-02-15T01:05:49.968Z,6.60
2023-02-15T01:07:53.493Z,6.50
2023-02-15T01:09:56.116Z,6.60
2023-02-15T01:11:57.821Z,6.60
2023-02-15T01:14:01.790Z,6.60
2023-02-15T01:16:04.679Z,6.60
2023-02-15T01:18:06.809Z,6.60
2023-02-15T01:20:08.619Z,6.60
2023-02-15T01:22:10.264Z,6.60
2023-02-15T01:24:14.885Z,6.60
2023-02-15T01:26:17.095Z,6.60
2023-02-15T01:28:19.378Z,6.60
2023-02-15T01:30:21.105Z,6.60
2023-02-15T01:32:23.772Z,6.60
2023-02-15T01:34:25.439Z,6.60
2023-02-15T01:36:27.094Z,6.60
2023-02-15T01:38:28.721Z,6.60
2023-02-15T01:40:30.377Z,6.60
2023-02-15T01:42:32.250Z,6.70
2023-02-15T01:44:52.560Z,6.70
2023-02-15T01:46:54.732Z,6.70
2023-02-15T01:48:59.333Z,6.70
2023-02-15T01:51:02.617Z,6.70
2023-02-15T01:53:07.176Z,6.80
2023-02-15T01:55:09.594Z,6.80
2023-02-15T01:57:17.542Z,6.80
2023-02-15T01:59:22.709Z,6.80
2023-02-15T02:01:25.592Z,6.80
2023-02-15T02:03:37.314Z,6.80
2023-02-15T02:05:39.825Z,6.90
2023-02-15T02:07:43.360Z,6.90
2023-02-15T02:09:45.533Z,6.90
2023-02-15T02:11:48.161Z,6.90
2023-02-15T02:13:50.881Z,7.00
2023-02-15T02:16:01.689Z,7.00
2023-02-15T02:18:06.437Z,7.00
2023-02-15T02:20:27.462Z,7.00
2023-02-15T02:22:47.587Z,7.00
2023-02-15T02:25:01.580Z,7.00
2023-02-15T02:27:13.665Z,7.00
2023-02-15T02:29:24.412Z,7.10
2023-02-15T02:31:37.391Z,7.10
2023-02-15T02:33:47.405Z,7.10
2023-02-15T02:36:07.799Z,7.10
2023-02-15T02:38:12.699Z,7.10
2023-02-15T02:40:21.227Z,7.10
2023-02-15T02:42:22.877Z,7.10
2023-02-15T02:44:44.472Z,7.20
2023-02-15T02:46:52.755Z,7.20
2023-02-15T02:48:54.903Z,7.20
2023-02-15T02:50:56.596Z,7.20
2023-02-15T02:52:59.012Z,7.20
2023-02-15T02:55:01.126Z,7.20
2023-02-15T02:57:05.225Z,7.20
2023-02-15T02:59:13.337Z,7.20
2023-02-15T03:01:25.639Z,7.20
2023-02-15T03:03:33.087Z,7.20
2023-02-15T03:05:36.687Z,7.20
2023-02-15T03:07:38.765Z,7.30
2023-02-15T03:09:45.292Z,7.30
2023-02-15T03:11:49.253Z,7.30
2023-02-15T03:13:50.964Z,7.30
2023-02-15T03:16:13.947Z,7.30
2023-02-15T03:18:17.693Z,7.30
2023-02-15T03:20:39.643Z,7.30
2023-02-15T03:22:53.195Z,7.30
2023-02-15T03:25:04.139Z,7.30
2023-02-15T03:27:08.283Z,7.30
2023-02-15T03:29:11.351Z,7.30
2023-02-15T03:31:14.369Z,7.30
2023-02-15T03:33:16.560Z,7.40
2023-02-15T03:35:20.422Z,7.30
2023-02-15T03:37:34.239Z,7.40
2023-02-15T03:39:41.769Z,7.40
2023-02-15T03:42:09.844Z,7.30
2023-02-15T03:44:31.316Z,7.40
2023-02-15T03:46:42.227Z,7.40
2023-02-15T03:48:46.593Z,7.40
2023-02-15T03:51:06.683Z,7.30
2023-02-15T03:53:10.169Z,7.40
2023-02-15T03:55:11.872Z,7.40
2023-02-15T03:57:32.120Z,7.40
2023-02-15T03:59:52.190Z,7.30
2023-02-15T04:01:59.654Z,7.30
2023-02-15T04:04:04.286Z,7.30
2023-02-15T04:06:06.033Z,7.30
2023-02-15T04:08:07.704Z,7.30
2023-02-15T04:10:28.134Z,7.30
2023-02-15T04:12:29.754Z,7.30
2023-02-15T04:14:49.993Z,7.30
2023-02-15T04:16:51.649Z,7.30
2023-02-15T04:19:11.825Z,7.30
2023-02-15T04:21:32.035Z,7.30
2023-02-15T04:23:52.088Z,7.30
2023-02-15T04:25:53.835Z,7.30
2023-02-15T04:27:55.831Z,7.30
2023-02-15T04:29:57.576Z,7.30
2023-02-15T04:32:00.224Z,7.20
2023-02-15T04:34:01.906Z,7.20
2023-02-15T04:36:04.700Z,7.20
2023-02-15T04:38:06.493Z,7.20
2023-02-15T04:40:08.977Z,7.20
2023-02-15T04:42:10.644Z,7.20
2023-02-15T04:44:12.468Z,7.20
2023-02-15T04:46:14.196Z,7.20
2023-02-15T04:48:16.003Z,7.20
2023-02-15T04:50:17.670Z,7.20
2023-02-15T04:52:19.308Z,7.20
2023-02-15T04:54:20.993Z,7.30
2023-02-15T04:56:22.719Z,7.20
2023-02-15T04:58:24.429Z,7.30
2023-02-15T05:00:26.070Z,7.30
2023-02-15T05:02:27.661Z,7.30
2023-02-15T05:04:29.425Z,7.30
2023-02-15T05:06:31.226Z,7.30
2023-02-15T05:08:32.958Z,7.30
2023-02-15T05:10:34.618Z,7.30
2023-02-15T05:12:36.306Z,7.40
2023-02-15T05:14:37.928Z,7.40
2023-02-15T05:16:39.664Z,7.40
2023-02-15T05:18:41.332Z,7.40
2023-02-15T05:20:43.199Z,7.50
2023-02-15T05:22:45.068Z,7.50
2023-02-15T05:25:05.610Z,7.50
2023-02-15T05:27:27.270Z,7.50
2023-02-15T05:29:29.698Z,7.50
2023-02-15T05:31:32.051Z,7.50
2023-02-15T05:33:34.453Z,7.50
2023-02-15T05:35:36.274Z,7.50
2023-02-15T05:37:37.875Z,7.50
2023-02-15T05:39:39.584Z,7.50
2023-02-15T05:41:41.233Z,7.50
2023-02-15T05:43:43.001Z,7.50
2023-02-15T05:45:52.165Z,7.50
2023-02-15T05:47:53.975Z,7.50
2023-02-15T05:49:55.635Z,7.50
2023-02-15T05:51:57.275Z,7.60
2023-02-15T05:53:58.950Z,7.50
2023-02-15T05:56:01.980Z,7.50
2023-02-15T05:58:03.861Z,7.60
2023-02-15T06:00:06.023Z,7.60
2023-02-15T06:02:14.026Z,7.60
2023-02-15T06:04:15.683Z,7.60
2023-02-15T06:06:17.347Z,7.60
2023-02-15T06:08:19.352Z,7.50
2023-02-15T06:10:21.108Z,7.50
2023-02-15T06:12:22.765Z,7.60
2023-02-15T06:14:24.430Z,7.60
2023-02-15T06:16:26.079Z,7.60
2023-02-15T06:18:27.907Z,7.60
2023-02-15T06:20:29.607Z,7.60
2023-02-15T06:22:31.259Z,7.60
2023-02-15T06:24:32.959Z,7.50
2023-02-15T06:26:34.625Z,7.50
2023-02-15T06:28:38.133Z,7.50
2023-02-15T06:30:39.923Z,7.50
2023-02-15T06:32:41.924Z,7.60
2023-02-15T06:34:43.638Z,7.50
2023-02-15T06:36:45.316Z,7.60
2023-02-15T06:38:46.958Z,7.60
2023-02-15T06:40:48.815Z,7.60
2023-02-15T06:42:50.559Z,7.60
2023-02-15T06:44:52.285Z,7.60
2023-02-15T06:46:53.922Z,7.60
2023-02-15T06:48:55.566Z,7.60
2023-02-15T06:50:57.289Z,7.60
2023-02-15T06:52:59.636Z,7.60
2023-02-15T06:55:01.317Z,7.60
2023-02-15T06:57:03.035Z,7.60
2023-02-15T06:59:04.667Z,7.60
2023-02-15T07:01:06.822Z,7.60
2023-02-15T07:03:08.919Z,7.60
2023-02-15T07:05:11.131Z,7.60
2023-02-15T07:07:13.093Z,7.60
2023-02-15T07:09:14.796Z,7.60
2023-02-15T07:11:35.229Z,7.60
2023-02-15T07:13:37.545Z,7.60
2023-02-15T07:15:39.801Z,7.60
2023-02-15T07:17:42.393Z,7.70
2023-02-15T07:19:44.612Z,7.60
2023-02-15T07:21:46.821Z,7.70
2023-02-15T07:23:48.968Z,7.60
2023-02-15T07:25:57.346Z,7.60
2023-02-15T07:27:59.710Z,7.60
2023-02-15T07:30:01.902Z,7.70
2023-02-15T07:32:03.693Z,7.70
2023-02-15T07:34:06.483Z,7.70
2023-02-15T07:36:08.414Z,7.70
2023-02-15T07:38:10.098Z,7.60
2023-02-15T07:40:11.877Z,7.70
2023-02-15T07:42:13.669Z,7.70
2023-02-15T07:44:17.369Z,7.60
2023-02-15T07:46:20.296Z,7.70
2023-02-15T07:48:24.830Z,7.70
2023-02-15T07:50:26.702Z,7.70
2023-02-15T07:52:28.579Z,7.70
2023-02-15T07:54:30.290Z,7.70
2023-02-15T07:56:33.616Z,7.70
2023-02-15T07:58:54.910Z,7.70
2023-02-15T08:01:01.667Z,7.70
2023-02-15T08:03:15.611Z,7.60
2023-02-15T08:05:19.210Z,7.60
2023-02-15T08:07:21.113Z,7.60
2023-02-15T08:09:23.102Z,7.70
2023-02-15T08:11:37.070Z,7.60
2023-02-15T08:13:54.494Z,7.60
2023-02-15T08:15:56.202Z,7.70
2023-02-15T08:17:57.874Z,7.70
2023-02-15T08:19:59.556Z,7.70
2023-02-15T08:22:05.740Z,7.70
2023-02-15T08:24:08.231Z,7.70
2023-02-15T08:26:10.085Z,7.70
2023-02-15T08:28:12.124Z,7.80
2023-02-15T08:30:15.250Z,7.80
2023-02-15T08:32:16.979Z,7.80
2023-02-15T08:34:19.543Z,7.80
2023-02-15T08:36:22.019Z,7.90
2023-02-15T08:38:23.707Z,7.90
2023-02-15T08:40:25.399Z,7.90
2023-02-15T08:42:27.028Z,7.90
2023-02-15T08:44:28.825Z,7.90
2023-02-15T08:46:32.149Z,7.90
2023-02-15T08:48:33.925Z,8.00
2023-02-15T08:50:35.539Z,8.00
2023-02-15T08:52:37.250Z,8.00
2023-02-15T08:54:38.943Z,8.00
2023-02-15T08:56:41.856Z,8.00
2023-02-15T08:58:43.570Z,8.10
2023-02-15T09:00:47.450Z,8.00
2023-02-15T09:02:49.365Z,8.00
2023-02-15T09:04:52.621Z,8.00
2023-02-15T09:06:54.429Z,8.10
2023-02-15T09:08:56.533Z,8.10
2023-02-15T09:11:07.326Z,8.10
2023-02-15T09:13:09.141Z,8.10
2023-02-15T09:15:10.888Z,8.10
2023-02-15T09:17:14.940Z,8.10
2023-02-15T09:19:18.924Z,8.10
2023-02-15T09:21:22.575Z,8.20
2023-02-15T09:23:27.180Z,8.20
2023-02-15T09:25:29.266Z,8.20
2023-02-15T09:27:31.208Z,8.20
2023-02-15T09:29:32.851Z,8.20
2023-02-15T09:31:38.081Z,8.30
2023-02-15T09:33:41.024Z,8.30
2023-02-15T09:35:42.739Z,8.30
2023-02-15T09:37:44.441Z,8.30
2023-02-15T09:39:48.255Z,8.30
2023-02-15T09:41:54.784Z,8.40
2023-02-15T09:44:11.890Z,8.40
2023-02-15T09:46:13.558Z,8.40
2023-02-15T09:48:15.231Z,8.40
2023-02-15T09:50:21.663Z,8.40
2023-02-15T09:52:23.349Z,8.40
2023-02-15T09:54:31.584Z,8.50
2023-02-15T09:56:38.638Z,8.40
2023-02-15T09:59:03.716Z,8.40
2023-02-15T10:01:24.464Z,8.50
2023-02-15T10:03:44.941Z,8.50
2023-02-15T10:06:04.889Z,8.50
2023-02-15T10:08:25.468Z,8.50
2023-02-15T10:10:30.361Z,8.50
2023-02-15T10:12:38.457Z,8.50
2023-02-15T10:14:52.108Z,8.60
2023-02-15T10:17:13.902Z,8.60
2023-02-15T10:25:00.141Z,8.60
2023-02-15T10:27:17.126Z,8.70
2023-02-15T10:29:28.836Z,8.70
2023-02-15T10:31:40.906Z,8.70
2023-02-15T10:33:49.216Z,8.70
2023-02-15T10:36:12.657Z,8.70
2023-02-15T10:38:47.536Z,8.80
2023-02-15T10:41:17.613Z,8.70
2023-02-15T10:43:29.917Z,8.80
2023-02-15T10:45:44.421Z,8.80
2023-02-15T10:47:55.874Z,8.80
2023-02-15T10:50:24.013Z,8.80
2023-02-15T10:52:47.248Z,8.90
2023-02-15T10:55:07.843Z,8.90
2023-02-15T10:57:09.560Z,8.90
2023-02-15T10:59:28.160Z,8.90
2023-02-15T11:01:53.002Z,8.90
2023-02-15T11:04:03.775Z,8.90
2023-02-15T11:06:08.285Z,9.00
2023-02-15T11:08:11.342Z,9.00
2023-02-15T11:10:19.623Z,9.00
2023-02-15T11:12:24.828Z,9.00
2023-02-15T11:14:45.762Z,9.00
2023-02-15T11:16:52.653Z,9.00
2023-02-15T11:18:57.115Z,9.00
2023-02-15T11:21:05.347Z,9.10
2023-02-15T11:23:13.281Z,9.10
2023-02-15T11:25:20.503Z,9.10
2023-02-15T11:27:31.285Z,9.10
2023-02-15T11:29:36.881Z,9.10
2023-02-15T11:31:46.140Z,9.20
2023-02-15T11:33:50.440Z,9.20
2023-02-15T11:35:56.701Z,9.20
2023-02-15T11:38:04.755Z,9.20
2023-02-15T11:40:16.460Z,9.20
2023-02-15T11:42:20.747Z,9.20
2023-02-15T11:44:33.638Z,9.30
2023-02-15T11:46:35.545Z,9.30
2023-02-15T11:48:37.314Z,9.30
2023-02-15T11:50:39.341Z,9.40
2023-02-15T11:52:41.130Z,9.40
2023-02-15T11:54:53.293Z,9.40
2023-02-15T11:56:57.562Z,9.40
2023-02-15T11:59:10.114Z,9.50
2023-02-15T12:01:17.683Z,9.50
2023-02-15T12:03:25.816Z,9.50
2023-02-15T12:05:28.302Z,9.60
2023-02-15T12:15:55.104Z,9.80
2023-02-15T12:33:51.225Z,10.00
2023-02-15T12:36:13.898Z,10.10
2023-02-15T12:38:59.404Z,10.20
2023-02-15T12:44:24.900Z,10.40
2023-02-15T12:49:21.429Z,10.60
2023-02-15T12:51:37.487Z,10.70
2023-02-15T12:54:28.064Z,10.70
2023-02-15T12:56:48.898Z,10.80
2023-02-15T13:20:50.099Z,11.30
2023-02-15T13:34:04.474Z,11.60
2023-02-15T13:42:42.664Z,11.80
2023-02-15T13:47:33.737Z,11.90
2023-02-15T13:50:13.368Z,12.00
2023-02-15T14:00:43.028Z,12.20
2023-02-15T14:06:07.956Z,12.30
2023-02-15T14:08:34.147Z,12.30
2023-02-15T14:10:48.805Z,12.40
2023-02-15T14:13:19.999Z,12.50
2023-02-15T14:21:53.245Z,12.60
2023-02-15T14:28:05.580Z,12.80
2023-02-15T14:30:39.704Z,12.80
2023-02-15T14:33:40.620Z,12.90
2023-02-15T14:35:49.144Z,12.90
2023-02-15T14:38:57.217Z,13.00
2023-02-15T14:44:33.570Z,13.10
2023-02-15T14:46:55.391Z,13.10
2023-02-15T14:49:25.749Z,13.20
2023-02-15T14:52:14.073Z,13.20
2023-02-15T14:54:42.224Z,13.30
2023-02-15T15:05:43.631Z,13.50
2023-02-15T15:16:40.045Z,13.60
2023-02-15T15:21:36.869Z,13.70
2023-02-15T15:24:09.900Z,13.70
2023-02-15T15:27:02.141Z,13.70
2023-02-15T15:30:13.644Z,13.70
2023-02-15T15:45:06.389Z,13.20
2023-02-15T15:47:58.757Z,13.00
2023-02-15T15:51:01.201Z,12.90
2023-02-15T15:54:06.153Z,12.80
2023-02-15T16:02:36.365Z,12.40
2023-02-15T16:04:56.494Z,12.30
2023-02-15T16:07:38.605Z,12.30
2023-02-15T16:10:06.549Z,12.20
2023-02-15T16:12:41.721Z,12.10
2023-02-15T16:15:34.839Z,12.00
2023-02-15T16:17:55.456Z,12.00
2023-02-15T16:20:01.493Z,11.90
2023-02-15T16:22:31.171Z,11.80
2023-02-15T16:25:11.875Z,11.80
2023-02-15T16:27:19.632Z,11.80
2023-02-15T16:29:29.521Z,11.70
2023-02-15T16:32:05.248Z,11.60
2023-02-15T16:34:27.933Z,11.50
2023-02-15T16:36:33.706Z,11.50
2023-02-15T16:39:12.901Z,11.50
2023-02-15T16:41:54.886Z,11.40
2023-02-15T16:44:14.403Z,11.30
2023-02-15T16:46:40.206Z,11.30
2023-02-15T16:48:55.660Z,11.20
2023-02-15T16:51:01.056Z,11.10
2023-02-15T16:53:06.628Z,11.10
2023-02-15T16:55:27.737Z,11.00
2023-02-15T16:58:02.105Z,11.00
2023-02-15T17:00:25.326Z,10.90
2023-02-15T17:02:56.195Z,10.80
2023-02-15T17:14:41.592Z,10.50
2023-02-15T17:16:56.439Z,10.50
2023-02-15T17:19:20.368Z,10.50
2023-02-15T17:21:49.151Z,10.40
2023-02-15T17:23:59.028Z,10.30
2023-02-15T17:26:32.008Z,10.30
2023-02-15T17:28:36.177Z,10.30
2023-02-15T17:30:39.593Z,10.30
2023-02-15T17:32:52.912Z,10.20
2023-02-15T17:34:57.448Z,10.20
2023-02-15T17:37:00.315Z,10.10
2023-02-15T17:39:05.891Z,10.10
2023-02-15T17:41:08.205Z,10.00
2023-02-15T17:43:09.905Z,10.00
2023-02-15T17:45:13.652Z,10.00
2023-02-15T17:47:17.631Z,9.90
2023-02-15T17:49:25.085Z,9.90
2023-02-15T17:51:26.973Z,9.90
2023-02-15T17:53:28.729Z,9.90
2023-02-15T17:55:38.956Z,9.80
2023-02-15T17:57:40.798Z,9.80
2023-02-15T18:00:01.617Z,9.80
2023-02-15T18:02:22.243Z,9.70
2023-02-15T18:04:43.621Z,9.70
2023-02-15T18:07:04.183Z,9.70
2023-02-15T18:09:24.949Z,9.60
2023-02-15T18:11:38.498Z,9.60
2023-02-15T18:13:40.200Z,9.60
2023-02-15T18:15:41.918Z,9.50
2023-02-15T18:17:45.408Z,9.50
2023-02-15T18:19:47.612Z,9.50
2023-02-15T18:21:49.817Z,9.50
2023-02-15T18:23:51.716Z,9.50
2023-02-15T18:25:53.403Z,9.40
2023-02-15T18:27:55.581Z,9.50
2023-02-15T18:29:57.388Z,9.40
2023-02-15T18:32:00.338Z,9.40
2023-02-15T18:34:03.136Z,9.40
2023-02-15T18:36:06.618Z,9.30
2023-02-15T18:38:09.713Z,9.30
2023-02-15T18:40:18.534Z,9.30
2023-02-15T18:42:22.417Z,9.30
2023-02-15T18:44:25.645Z,9.30
2023-02-15T18:46:27.446Z,9.20
2023-02-15T18:48:29.328Z,9.20
2023-02-15T18:50:34.088Z,9.20
2023-02-15T18:52:37.380Z,9.20
2023-02-15T18:54:39.258Z,9.20
2023-02-15T18:56:41.070Z,9.20
2023-02-15T18:58:43.175Z,9.10
2023-02-15T19:00:45.520Z,9.20
2023-02-15T19:02:47.559Z,9.10
2023-02-15T19:04:49.395Z,9.10
2023-02-15T19:06:51.279Z,9.10
2023-02-15T19:08:53.198Z,9.10
2023-02-15T19:10:55.126Z,9.00
2023-02-15T19:12:56.829Z,9.10
2023-02-15T19:14:58.743Z,9.00
2023-02-15T19:17:00.647Z,9.00
2023-02-15T19:19:02.542Z,9.00
2023-02-15T19:21:05.247Z,9.00
2023-02-15T19:23:09.400Z,9.00
2023-02-15T19:25:14.613Z,9.00
2023-02-15T19:27:26.179Z,9.00
2023-02-15T19:29:29.872Z,9.00
2023-02-15T19:31:34.689Z,9.00
2023-02-15T19:33:36.842Z,8.90
2023-02-15T19:35:39.402Z,9.00
2023-02-15T19:37:43.480Z,8.90
2023-02-15T19:39:45.385Z,8.90
2023-02-15T19:41:47.080Z,8.90
2023-02-15T19:43:53.194Z,8.90
2023-02-15T19:45:55.116Z,8.90
2023-02-15T19:47:56.977Z,8.90
2023-02-15T19:50:07.543Z,8.90
2023-02-15T19:52:18.851Z,8.90
2023-02-15T19:54:30.905Z,8.90
2023-02-15T19:59:57.735Z,8.90
2023-02-15T20:02:07.286Z,8.90
2023-02-15T20:04:09.243Z,8.90
2023-02-15T20:06:15.115Z,8.80
2023-02-15T20:08:18.367Z,8.90
2023-02-15T20:10:31.776Z,8.80
2023-02-15T20:12:33.617Z,8.80
2023-02-15T20:14:38.469Z,8.80
2023-02-15T20:16:40.421Z,8.80
2023-02-15T20:18:46.367Z,8.80
2023-02-15T20:20:49.299Z,8.80
2023-02-15T20:22:51.893Z,8.80
2023-02-15T20:24:56.936Z,8.80
2023-02-15T20:26:59.281Z,8.80
2023-02-15T20:29:01.705Z,8.80
2023-02-15T20:31:03.952Z,8.80
2023-02-15T20:33:06.160Z,8.80
2023-02-15T20:35:12.416Z,8.80
2023-02-15T20:37:34.153Z,8.80
2023-02-15T20:39:37.216Z,8.80
2023-02-15T20:41:40.063Z,8.80
2023-02-15T20:43:42.024Z,8.80
2023-02-15T20:45:43.786Z,8.80
2023-02-15T20:47:48.584Z,8.70
2023-02-15T20:49:50.780Z,8.80
2023-02-15T20:51:55.754Z,8.70
2023-02-15T20:53:57.938Z,8.80
2023-02-15T20:55:59.814Z,8.80
2023-02-15T20:58:01.689Z,8.70
2023-02-15T21:00:04.470Z,8.70
2023-02-15T21:02:19.820Z,8.70
2023-02-15T21:04:32.099Z,8.70
2023-02-15T21:06:33.876Z,8.70
2023-02-15T21:08:35.839Z,8.70
2023-02-15T21:10:37.846Z,8.70
2023-02-15T21:12:39.892Z,8.70
2023-02-15T21:14:41.934Z,8.70
2023-02-15T21:16:44.097Z,8.70
2023-02-15T21:18:45.808Z,8.70
2023-02-15T21:20:49.462Z,8.70
2023-02-15T21:22:51.755Z,8.70
2023-02-15T21:24:54.953Z,8.70
2023-02-15T21:26:58.824Z,8.70
2023-02-15T21:29:00.837Z,8.70
2023-02-15T21:31:03.185Z,8.70
2023-02-15T21:33:05.316Z,8.70
2023-02-15T21:35:07.119Z,8.70
2023-02-15T21:37:26.407Z,8.70
2023-02-15T21:39:29.781Z,8.70
2023-02-15T21:41:49.949Z,8.70
2023-02-15T21:44:10.489Z,8.70
2023-02-15T21:46:31.588Z,8.70
2023-02-15T21:48:33.318Z,8.60
2023-02-15T21:50:53.978Z,8.70
2023-02-15T21:52:56.475Z,8.60
2023-02-15T21:54:58.199Z,8.70
2023-02-15T21:57:00.753Z,8.60
2023-02-15T21:59:02.423Z,8.60
2023-02-15T22:01:04.580Z,8.60
2023-02-15T22:03:06.558Z,8.60
2023-02-15T22:05:15.931Z,8.60
2023-02-15T22:07:20.296Z,8.60
2023-02-15T22:09:23.599Z,8.60
2023-02-15T22:11:25.356Z,8.60
2023-02-15T22:13:28.430Z,8.60
2023-02-15T22:15:37.035Z,8.60
2023-02-15T22:17:39.215Z,8.60
2023-02-15T22:19:41.066Z,8.60
2023-02-15T22:21:42.691Z,8.60
2023-02-15T22:23:44.482Z,8.60
2023-02-15T22:25:51.402Z,8.60
2023-02-15T22:27:53.970Z,8.60
2023-02-15T22:29:55.692Z,8.60
2023-02-15T22:31:57.518Z,8.60
2023-02-15T22:33:59.191Z,8.60
2023-02-15T22:36:01.213Z,8.70
2023-02-15T22:38:02.849Z,8.60
2023-02-15T22:40:05.137Z,8.60
2023-02-15T22:42:14.078Z,8.60
2023-02-15T22:44:17.302Z,8.60
2023-02-15T22:46:21.042Z,8.60
2023-02-15T22:48:23.009Z,8.60
2023-02-15T22:50:25.923Z,8.60
2023-02-15T22:52:27.602Z,8.60
2023-02-15T22:54:29.294Z,8.60
2023-02-15T22:56:30.880Z,8.60
2023-02-15T22:58:32.751Z,8.60
2023-02-15T23:00:38.905Z,8.60
2023-02-15T23:02:40.574Z,8.60
2023-02-15T23:04:42.525Z,8.60
2023-02-15T23:06:44.191Z,8.60
2023-02-15T23:08:45.954Z,8.50
2023-02-15T23:10:49.642Z,8.60
2023-02-15T23:13:11.830Z,8.60
2023-02-15T23:15:13.477Z,8.60
2023-02-15T23:17:15.046Z,8.50
2023-02-15T23:19:16.762Z,8.50
2023-02-15T23:21:20.925Z,8.50
2023-02-15T23:23:25.195Z,8.50
2023-02-15T23:25:28.044Z,8.50
2023-02-15T23:27:48.065Z,8.50
2023-02-15T23:29:49.771Z,8.50
2023-02-15T23:31:52.539Z,8.50
2023-02-15T23:33:54.690Z,8.40
2023-02-15T23:35:56.312Z,8.40
2023-02-15T23:37:57.976Z,8.40
2023-02-15T23:40:18.411Z,8.40
2023-02-15T23:42:21.250Z,8.40
2023-02-15T23:44:22.937Z,8.30
2023-02-15T23:46:26.771Z,8.30
2023-02-15T23:48:36.727Z,8.30
2023-02-15T23:50:38.426Z,8.20
2023-02-15T23:52:40.109Z,8.20
2023-02-15T23:54:41.750Z,8.20
2023-02-15T23:56:44.585Z,8.20
2023-02-15T23:58:46.572Z,8.20
